Time;durP1;ratioP1;P1;durP2;ratioP2;P2;SDS_P1;SDS_P2;PMS_P1;PMS_P2;Temp;Humidity;BMP_temperature;BMP_pressure;BME280_temperature;BME280_humidity;BME280_pressure;Samples;Min_cycle;Max_cycle;Signal;HPM_P1;HPM_P2
2024/01/31 00:02:15;;;;;;;26.10;18.43;;;7.80;99.90;;;;;;5100488;28;20211;-79
2024/01/31 00:04:40;;;;;;;25.80;19.13;;;7.80;99.90;;;;;;5100588;28;20286;-80
2024/01/31 00:07:06;;;;;;;27.57;19.23;;;7.70;99.90;;;;;;5108800;28;20514;-80
2024/01/31 00:09:31;;;;;;;26.60;19.50;;;7.70;99.90;;;;;;5106326;28;20505;-79
2024/01/31 00:11:57;;;;;;;26.67;19.00;;;7.70;99.90;;;;;;5096783;28;20226;-80
2024/01/31 00:14:22;;;;;;;23.70;17.50;;;7.70;99.90;;;;;;5098066;28;20186;-79
2024/01/31 00:16:48;;;;;;;22.80;17.00;;;7.70;99.90;;;;;;5098062;28;20170;-80
2024/01/31 00:19:14;;;;;;;23.23;16.73;;;7.70;99.90;;;;;;5096746;28;20645;-80
2024/01/31 00:21:41;;;;;;;25.43;17.37;;;7.60;99.90;;;;;;5095965;28;20178;-80
2024/01/31 00:24:06;;;;;;;22.37;17.17;;;7.60;99.90;;;;;;5093524;28;20202;-79
2024/01/31 00:26:32;;;;;;;22.63;16.70;;;7.60;99.90;;;;;;5095655;28;20227;-79
2024/01/31 00:28:58;;;;;;;24.97;15.93;;;7.60;99.90;;;;;;5096063;28;20167;-78
2024/01/31 00:31:24;;;;;;;23.83;16.27;;;7.60;99.90;;;;;;5097362;28;20163;-79
2024/01/31 00:33:49;;;;;;;20.83;15.67;;;7.60;99.90;;;;;;5096834;28;20685;-79
2024/01/31 00:36:15;;;;;;;21.90;14.97;;;7.60;99.90;;;;;;5097254;28;20181;-79
2024/01/31 00:38:40;;;;;;;18.97;13.43;;;7.50;99.90;;;;;;5097634;28;20166;-79
2024/01/31 00:41:07;;;;;;;22.70;14.80;;;7.50;99.90;;;;;;5096013;28;20237;-79
2024/01/31 00:43:33;;;;;;;22.27;14.43;;;7.70;99.90;;;;;;5097131;28;20202;-80
2024/01/31 00:45:58;;;;;;;21.50;12.40;;;7.50;99.90;;;;;;5096975;28;20170;-80
2024/01/31 00:48:24;;;;;;;23.30;11.90;;;7.50;99.90;;;;;;5096646;28;20174;-78
2024/01/31 00:50:49;;;;;;;25.73;13.43;;;7.50;99.90;;;;;;5094895;28;20188;-79
2024/01/31 00:53:15;;;;;;;20.00;13.47;;;7.50;99.90;;;;;;5095264;28;20289;-80
2024/01/31 00:55:41;;;;;;;25.07;13.67;;;7.40;99.90;;;;;;5097333;28;20178;-80
2024/01/31 00:58:06;;;;;;;25.10;14.57;;;7.40;99.90;;;;;;5095246;28;20658;-80
2024/01/31 01:00:32;;;;;;;21.43;13.93;;;7.50;99.90;;;;;;5095682;28;20199;-80
2024/01/31 01:02:57;;;;;;;24.10;14.90;;;7.50;99.90;;;;;;5096899;28;20198;-80
2024/01/31 01:05:23;;;;;;;23.40;13.80;;;7.40;99.90;;;;;;5096955;28;20170;-80
2024/01/31 01:07:49;;;;;;;22.77;13.37;;;7.40;99.90;;;;;;5095720;28;20288;-79
2024/01/31 01:10:15;;;;;;;21.43;12.53;;;7.40;99.90;;;;;;5097823;28;20166;-80
2024/01/31 01:12:42;;;;;;;20.73;11.77;;;7.50;99.90;;;;;;5095995;28;20194;-80
2024/01/31 01:15:11;;;;;;;19.20;11.53;;;7.40;99.90;;;;;;5095585;28;20230;-80
2024/01/31 01:17:38;;;;;;;21.07;11.50;;;7.40;99.90;;;;;;5097525;28;20182;-80
2024/01/31 01:20:06;;;;;;;20.33;12.17;;;7.40;99.90;;;;;;5096230;28;20173;-80
2024/01/31 01:22:32;;;;;;;21.00;11.70;;;7.40;99.90;;;;;;5096816;28;20674;-80
2024/01/31 01:24:57;;;;;;;22.93;11.47;;;7.40;99.90;;;;;;5096708;28;20206;-80
2024/01/31 01:27:23;;;;;;;17.90;9.67;;;7.40;99.90;;;;;;5097134;28;20185;-80
2024/01/31 01:29:48;;;;;;;20.57;11.30;;;7.40;99.90;;;;;;5095729;28;20239;-79
2024/01/31 01:32:14;;;;;;;18.97;10.27;;;7.40;99.90;;;;;;5097123;28;20162;-80
2024/01/31 01:34:43;;;;;;;17.50;10.10;;;7.30;99.90;;;;;;5096759;28;20702;-80
2024/01/31 01:37:08;;;;;;;18.30;9.90;;;7.40;99.90;;;;;;5095544;28;20610;-80
2024/01/31 01:39:39;;;;;;;19.47;9.30;;;7.40;99.90;;;;;;5095314;28;20190;-80
2024/01/31 01:42:04;;;;;;;25.20;9.90;;;7.30;99.90;;;;;;5094987;28;20182;-79
2024/01/31 01:44:32;;;;;;;16.23;8.80;;;7.30;99.90;;;;;;5094715;28;20216;-80
2024/01/31 01:47:02;;;;;;;14.73;8.70;;;7.30;99.90;;;;;;5096886;28;20202;-80
2024/01/31 01:49:29;;;;;;;14.47;8.00;;;7.30;99.90;;;;;;5095831;28;20243;-80
2024/01/31 01:51:54;;;;;;;13.60;7.87;;;7.30;99.90;;;;;;5095407;28;20266;-79
2024/01/31 01:54:20;;;;;;;20.27;7.73;;;7.30;99.90;;;;;;5095318;28;20262;-80
2024/01/31 01:56:47;;;;;;;18.80;7.37;;;7.30;99.90;;;;;;5110978;28;20545;-79
2024/01/31 01:59:13;;;;;;;15.40;7.27;;;7.30;99.90;;;;;;5115285;28;20177;-79
2024/01/31 02:01:41;;;;;;;13.57;7.00;;;7.30;99.90;;;;;;5111509;28;20762;-79
2024/01/31 02:04:08;;;;;;;18.80;7.47;;;7.30;99.90;;;;;;5092383;28;20707;-78
2024/01/31 02:06:34;;;;;;;16.37;6.57;;;7.20;99.90;;;;;;5097743;28;20181;-80
2024/01/31 02:09:01;;;;;;;12.50;6.60;;;7.20;99.90;;;;;;5098402;28;20166;-80
2024/01/31 02:11:26;;;;;;;17.40;7.00;;;7.20;99.90;;;;;;5097416;28;20185;-80
2024/01/31 02:13:52;;;;;;;20.67;6.60;;;7.30;99.90;;;;;;5096567;28;20206;-80
2024/01/31 02:16:18;;;;;;;13.37;6.43;;;7.20;99.90;;;;;;5099125;28;20207;-80
2024/01/31 02:18:44;;;;;;;13.20;7.03;;;7.20;99.90;;;;;;5105816;28;20641;-79
2024/01/31 02:21:09;;;;;;;12.10;6.87;;;7.10;99.90;;;;;;5110698;28;20178;-79
2024/01/31 02:23:35;;;;;;;13.70;6.10;;;7.10;99.90;;;;;;5105644;28;20202;-80
2024/01/31 02:26:00;;;;;;;12.73;6.03;;;7.10;99.90;;;;;;5095914;28;20584;-80
2024/01/31 02:28:26;;;;;;;11.17;5.83;;;7.10;99.90;;;;;;5095454;28;20202;-80
2024/01/31 02:30:52;;;;;;;16.00;6.03;;;7.10;99.90;;;;;;5096132;28;20661;-80
2024/01/31 02:33:17;;;;;;;13.23;6.07;;;7.10;99.90;;;;;;5096261;28;20193;-80
2024/01/31 02:35:43;;;;;;;14.30;5.50;;;7.10;99.90;;;;;;5094684;28;20174;-79
2024/01/31 02:38:08;;;;;;;13.67;5.57;;;7.10;99.90;;;;;;5096367;28;20291;-80
2024/01/31 02:40:34;;;;;;;16.23;6.20;;;7.10;99.90;;;;;;5094621;28;20263;-80
2024/01/31 02:42:59;;;;;;;11.67;5.80;;;7.10;99.90;;;;;;5096094;28;20262;-80
2024/01/31 02:45:25;;;;;;;11.07;5.93;;;7.00;99.90;;;;;;5096110;28;20162;-79
2024/01/31 02:47:51;;;;;;;13.87;6.83;;;7.00;99.90;;;;;;5093821;28;20553;-79
2024/01/31 02:50:17;;;;;;;15.67;5.83;;;7.00;99.90;;;;;;5096274;28;20266;-80
2024/01/31 02:52:42;;;;;;;15.10;6.50;;;7.10;99.90;;;;;;5094706;28;20204;-79
2024/01/31 02:55:08;;;;;;;14.13;5.83;;;7.00;99.90;;;;;;5094416;28;20223;-79
2024/01/31 02:57:34;;;;;;;16.30;6.73;;;7.00;99.90;;;;;;5095555;28;20171;-79
2024/01/31 03:00:00;;;;;;;20.50;7.33;;;7.00;99.90;;;;;;5094196;28;20185;-79
2024/01/31 03:02:26;;;;;;;11.13;5.53;;;7.00;99.90;;;;;;5095120;28;20186;-80
2024/01/31 03:04:51;;;;;;;13.40;6.33;;;6.90;99.90;;;;;;5095328;28;20198;-79
2024/01/31 03:07:17;;;;;;;14.87;5.93;;;7.00;99.90;;;;;;5095960;28;20174;-80
2024/01/31 03:09:43;;;;;;;10.73;6.30;;;7.00;99.90;;;;;;5095715;28;20185;-79
2024/01/31 03:12:08;;;;;;;12.33;6.43;;;6.90;99.90;;;;;;5095446;28;20190;-79
2024/01/31 03:14:34;;;;;;;14.80;5.60;;;6.90;99.90;;;;;;5095842;28;20243;-80
2024/01/31 03:17:00;;;;;;;13.67;6.97;;;6.90;99.90;;;;;;5095877;28;20171;-80
2024/01/31 03:19:29;;;;;;;12.17;5.60;;;6.90;99.90;;;;;;5095333;28;20175;-80
2024/01/31 03:21:55;;;;;;;9.20;5.53;;;6.90;99.90;;;;;;5096969;28;20193;-80
2024/01/31 03:24:24;;;;;;;16.03;5.67;;;6.90;99.90;;;;;;5098768;28;20197;-80
2024/01/31 03:26:49;;;;;;;13.10;5.60;;;6.90;99.90;;;;;;5098129;28;20271;-80
2024/01/31 03:29:15;;;;;;;12.97;5.90;;;6.90;99.90;;;;;;5099129;28;20642;-78
2024/01/31 03:31:40;;;;;;;13.13;5.77;;;6.90;99.90;;;;;;5099480;28;20171;-80
2024/01/31 03:34:06;;;;;;;15.33;4.80;;;6.90;99.90;;;;;;5098530;28;20285;-80
2024/01/31 03:36:33;;;;;;;14.80;5.13;;;6.90;99.90;;;;;;5099159;28;20170;-81
2024/01/31 03:39:01;;;;;;;10.70;5.53;;;6.90;99.90;;;;;;5097483;28;20232;-80
2024/01/31 03:41:27;;;;;;;10.53;4.63;;;6.90;99.90;;;;;;5099162;28;20245;-80
2024/01/31 03:43:54;;;;;;;10.87;5.53;;;6.90;99.90;;;;;;5098814;28;20222;-80
2024/01/31 03:46:19;;;;;;;9.03;5.03;;;6.90;99.90;;;;;;5098946;28;20222;-81
2024/01/31 03:48:45;;;;;;;9.30;4.77;;;6.90;99.90;;;;;;5096408;28;20218;-80
2024/01/31 03:51:21;;;;;;;9.70;4.90;;;6.90;99.90;;;;;;5098213;28;20533;-79
2024/01/31 03:53:48;;;;;;;10.10;4.93;;;6.90;99.90;;;;;;5097118;28;20198;-80
2024/01/31 03:56:14;;;;;;;12.87;5.00;;;7.20;99.90;;;;;;5096112;28;20649;-79
2024/01/31 03:58:40;;;;;;;12.13;4.93;;;6.80;99.90;;;;;;5093668;28;20174;-79
2024/01/31 04:01:06;;;;;;;9.23;4.67;;;6.80;99.90;;;;;;5095916;28;20540;-79
2024/01/31 04:03:31;;;;;;;13.20;4.80;;;6.70;99.90;;;;;;5094562;28;20206;-79
2024/01/31 04:05:57;;;;;;;11.07;4.53;;;6.80;99.90;;;;;;5094879;28;20569;-79
2024/01/31 04:08:23;;;;;;;12.20;4.97;;;6.80;99.90;;;;;;5094835;28;20595;-80
2024/01/31 04:10:48;;;;;;;10.43;4.97;;;6.70;99.90;;;;;;5095026;28;20162;-80
2024/01/31 04:13:14;;;;;;;12.33;5.07;;;6.70;99.90;;;;;;5094737;28;20228;-79
2024/01/31 04:15:39;;;;;;;8.50;5.13;;;6.80;99.90;;;;;;5097278;28;20178;-79
2024/01/31 04:18:07;;;;;;;9.83;5.03;;;6.70;99.90;;;;;;5096876;28;20185;-80
2024/01/31 04:20:34;;;;;;;15.33;5.43;;;6.70;99.90;;;;;;5097072;28;20174;-80
2024/01/31 04:23:00;;;;;;;9.13;4.23;;;6.80;99.90;;;;;;5098028;28;20186;-80
2024/01/31 04:25:25;;;;;;;9.77;5.27;;;6.70;99.90;;;;;;5096629;28;20733;-80
2024/01/31 04:27:51;;;;;;;10.50;4.70;;;6.80;99.90;;;;;;5096201;28;20170;-80
2024/01/31 04:30:18;;;;;;;8.67;4.37;;;6.80;99.90;;;;;;5099533;28;20182;-80
2024/01/31 04:32:43;;;;;;;9.37;4.70;;;6.80;99.90;;;;;;5096532;28;20186;-80
2024/01/31 04:35:10;;;;;;;8.43;4.80;;;6.80;99.90;;;;;;5096583;28;20174;-79
2024/01/31 04:37:35;;;;;;;9.33;4.80;;;6.70;99.90;;;;;;5096279;28;20226;-80
2024/01/31 04:40:01;;;;;;;10.00;4.77;;;6.70;99.90;;;;;;5098580;28;20560;-80
2024/01/31 04:42:26;;;;;;;12.20;5.30;;;6.70;99.90;;;;;;5097595;28;20783;-80
2024/01/31 04:44:52;;;;;;;10.87;4.37;;;6.70;99.90;;;;;;5096617;28;20669;-80
2024/01/31 04:47:17;;;;;;;7.80;4.50;;;6.70;99.90;;;;;;5096540;28;20166;-80
2024/01/31 04:49:43;;;;;;;9.93;4.37;;;6.70;99.90;;;;;;5098644;28;20228;-80
2024/01/31 04:52:09;;;;;;;8.13;4.10;;;6.70;99.90;;;;;;5098008;28;20167;-80
2024/01/31 04:54:39;;;;;;;13.70;4.43;;;6.70;99.90;;;;;;5096568;28;20185;-81
2024/01/31 04:57:05;;;;;;;7.07;3.87;;;6.70;99.90;;;;;;5098646;28;20179;-80
2024/01/31 04:59:30;;;;;;;8.10;4.03;;;6.70;99.90;;;;;;5097871;28;20182;-80
2024/01/31 05:01:56;;;;;;;8.87;4.30;;;6.60;99.90;;;;;;5096353;28;20174;-80
2024/01/31 05:04:21;;;;;;;8.10;3.87;;;6.60;99.90;;;;;;5096249;28;20277;-80
2024/01/31 05:06:47;;;;;;;6.00;3.90;;;6.60;99.90;;;;;;5096456;28;20197;-80
2024/01/31 05:09:12;;;;;;;10.07;4.57;;;6.60;99.90;;;;;;5096430;28;20162;-80
2024/01/31 05:11:38;;;;;;;6.30;3.83;;;6.60;99.90;;;;;;5096395;28;20178;-80
2024/01/31 05:14:03;;;;;;;7.50;3.93;;;6.60;99.90;;;;;;5097569;28;20199;-80
2024/01/31 05:16:29;;;;;;;6.17;3.90;;;6.60;99.90;;;;;;5097799;28;20177;-79
2024/01/31 05:18:54;;;;;;;6.67;4.07;;;6.60;99.90;;;;;;5095855;28;20177;-80
2024/01/31 05:21:20;;;;;;;10.20;4.23;;;6.50;99.90;;;;;;5097398;28;20181;-79
2024/01/31 05:23:45;;;;;;;6.80;3.67;;;6.60;99.90;;;;;;5098083;28;20198;-81
2024/01/31 05:26:11;;;;;;;7.70;3.90;;;6.60;99.90;;;;;;5095678;28;20545;-80
2024/01/31 05:28:37;;;;;;;8.57;4.33;;;6.50;99.90;;;;;;5097360;28;20185;-80
2024/01/31 05:31:03;;;;;;;12.23;4.10;;;6.50;99.90;;;;;;5097046;28;20162;-80
2024/01/31 05:33:29;;;;;;;12.97;4.63;;;6.50;99.90;;;;;;5095234;28;20186;-79
2024/01/31 05:35:57;;;;;;;9.63;4.10;;;6.50;99.90;;;;;;5096556;28;20265;-80
2024/01/31 05:38:23;;;;;;;8.13;3.67;;;6.50;99.90;;;;;;5096716;28;20176;-79
2024/01/31 05:40:48;;;;;;;13.20;4.27;;;6.50;99.90;;;;;;5096507;28;20209;-80
2024/01/31 05:43:14;;;;;;;7.83;3.97;;;6.50;99.90;;;;;;5094827;28;20637;-80
2024/01/31 05:45:39;;;;;;;8.73;4.40;;;6.50;99.90;;;;;;5095236;28;20659;-80
2024/01/31 05:48:05;;;;;;;9.13;4.07;;;6.50;99.90;;;;;;5095357;28;20391;-79
2024/01/31 05:50:31;;;;;;;10.23;4.33;;;6.40;99.90;;;;;;5096724;28;20181;-80
2024/01/31 05:52:56;;;;;;;9.47;4.40;;;6.40;99.90;;;;;;5095768;28;20209;-80
2024/01/31 05:55:22;;;;;;;10.77;4.37;;;6.40;99.90;;;;;;5097002;28;20713;-79
2024/01/31 05:57:49;;;;;;;11.50;4.80;;;6.40;99.90;;;;;;5104834;28;20645;-80
2024/01/31 06:00:15;;;;;;;8.27;4.37;;;6.40;99.90;;;;;;5118665;28;20197;-79
2024/01/31 06:02:41;;;;;;;11.87;5.60;;;6.40;99.90;;;;;;5118419;28;20193;-79
2024/01/31 06:05:07;;;;;;;10.67;5.63;;;6.40;99.90;;;;;;5120046;28;20226;-79
2024/01/31 06:07:32;;;;;;;10.73;4.87;;;6.40;99.90;;;;;;5121126;28;20590;-78
2024/01/31 06:09:58;;;;;;;9.73;4.80;;;6.40;99.90;;;;;;5119839;28;20249;-80
2024/01/31 06:12:23;;;;;;;11.33;5.07;;;6.40;99.90;;;;;;5119978;28;20187;-79
2024/01/31 06:14:49;;;;;;;7.97;4.80;;;6.40;99.90;;;;;;5120168;28;20604;-80
2024/01/31 06:17:16;;;;;;;10.37;5.23;;;6.40;99.90;;;;;;5119240;28;20641;-80
2024/01/31 06:19:43;;;;;;;10.03;4.67;;;6.40;99.90;;;;;;5120942;28;20200;-80
2024/01/31 06:22:08;;;;;;;9.47;5.00;;;6.40;99.90;;;;;;5119863;28;20179;-80
2024/01/31 06:24:34;;;;;;;13.93;6.13;;;6.40;99.90;;;;;;5120478;28;20271;-80
2024/01/31 06:26:59;;;;;;;13.53;5.60;;;6.40;99.90;;;;;;5120732;28;20173;-80
2024/01/31 06:29:25;;;;;;;13.07;5.53;;;6.40;99.90;;;;;;5120141;28;20172;-79
2024/01/31 06:31:52;;;;;;;9.77;5.67;;;6.40;99.90;;;;;;5120885;28;20162;-78
2024/01/31 06:34:18;;;;;;;11.33;5.60;;;6.40;99.90;;;;;;5121139;28;20208;-80
2024/01/31 06:36:44;;;;;;;14.53;6.40;;;6.30;99.90;;;;;;5118930;28;20181;-80
2024/01/31 06:39:10;;;;;;;9.07;5.47;;;6.40;99.90;;;;;;5122450;28;20169;-78
2024/01/31 06:41:37;;;;;;;15.53;6.10;;;6.40;99.90;;;;;;5134177;28;20153;-79
2024/01/31 06:44:03;;;;;;;13.10;6.20;;;6.40;99.90;;;;;;5135531;28;20189;-78
2024/01/31 06:46:29;;;;;;;17.63;6.53;;;6.40;99.90;;;;;;5135713;28;20189;-78
2024/01/31 06:48:55;;;;;;;8.67;5.50;;;6.40;99.90;;;;;;5125784;28;20698;-79
2024/01/31 06:51:20;;;;;;;10.63;5.67;;;6.40;99.90;;;;;;5123694;28;20252;-80
2024/01/31 06:53:46;;;;;;;14.43;6.00;;;6.40;99.90;;;;;;5122419;28;20217;-80
2024/01/31 06:56:17;;;;;;;11.93;5.90;;;6.30;99.90;;;;;;5123271;28;20169;-80
2024/01/31 06:58:49;;;;;;;10.90;5.93;;;6.40;99.90;;;;;;5124937;28;20173;-80
2024/01/31 07:01:21;;;;;;;11.97;6.23;;;6.40;99.90;;;;;;5120235;28;20162;-79
2024/01/31 07:03:46;;;;;;;13.27;5.97;;;6.40;99.90;;;;;;5115244;28;20738;-78
2024/01/31 07:06:12;;;;;;;12.43;5.60;;;6.40;99.90;;;;;;5118957;28;20173;-79
2024/01/31 07:08:39;;;;;;;14.37;5.80;;;6.30;99.90;;;;;;5123205;28;20209;-80
2024/01/31 07:11:08;;;;;;;11.30;6.07;;;6.30;99.90;;;;;;5120904;28;20196;-80
2024/01/31 07:13:34;;;;;;;11.33;5.77;;;6.30;99.90;;;;;;5120147;28;20225;-80
2024/01/31 07:16:09;;;;;;;12.37;6.40;;;6.30;99.90;;;;;;5120569;28;20323;-80
2024/01/31 07:18:41;;;;;;;11.67;6.47;;;6.40;99.90;;;;;;5119000;28;20215;-80
2024/01/31 07:21:11;;;;;;;14.97;6.17;;;6.40;99.90;;;;;;5120087;28;20545;-80
2024/01/31 07:23:37;;;;;;;10.03;6.00;;;6.30;99.90;;;;;;5120162;28;20224;-79
2024/01/31 07:26:03;;;;;;;12.93;6.40;;;6.40;99.90;;;;;;5119197;28;20174;-80
2024/01/31 07:28:31;;;;;;;12.00;5.97;;;6.40;99.90;;;;;;5119488;28;20178;-81
2024/01/31 07:30:57;;;;;;;10.83;6.50;;;6.40;99.90;;;;;;5120907;28;20526;-81
2024/01/31 07:33:22;;;;;;;12.53;7.13;;;6.40;99.90;;;;;;5118559;28;20200;-80
2024/01/31 07:35:48;;;;;;;13.87;6.60;;;6.40;99.90;;;;;;5120905;28;20181;-80
2024/01/31 07:38:13;;;;;;;17.67;7.20;;;6.40;99.90;;;;;;5120288;28;20173;-80
2024/01/31 07:40:39;;;;;;;10.77;6.73;;;6.40;99.90;;;;;;5120349;28;20257;-80
2024/01/31 07:43:05;;;;;;;12.93;7.10;;;6.40;99.90;;;;;;5119233;28;20197;-80
2024/01/31 07:45:30;;;;;;;14.60;6.53;;;6.40;99.90;;;;;;5120055;28;20538;-80
2024/01/31 07:47:59;;;;;;;11.13;6.90;;;6.40;99.90;;;;;;5118883;28;20172;-81
2024/01/31 07:50:24;;;;;;;15.23;6.97;;;6.40;99.90;;;;;;5120451;28;20203;-80
2024/01/31 07:52:50;;;;;;;16.73;7.20;;;6.40;99.90;;;;;;5119711;28;20189;-81
2024/01/31 07:55:15;;;;;;;11.57;6.70;;;6.40;99.90;;;;;;5119320;28;20178;-80
2024/01/31 07:57:41;;;;;;;15.30;8.07;;;6.40;99.90;;;;;;5118894;28;20298;-80
2024/01/31 08:00:07;;;;;;;12.97;7.17;;;6.50;99.90;;;;;;5120408;28;20209;-81
2024/01/31 08:02:33;;;;;;;12.30;7.10;;;6.50;99.90;;;;;;5118855;28;20276;-81
2024/01/31 08:04:59;;;;;;;14.13;7.57;;;6.50;99.90;;;;;;5121198;28;20243;-80
2024/01/31 08:07:25;;;;;;;15.23;9.17;;;6.50;99.90;;;;;;5120685;28;20170;-80
2024/01/31 08:09:50;;;;;;;16.50;8.37;;;6.50;99.90;;;;;;5119640;28;20535;-80
2024/01/31 08:12:17;;;;;;;13.47;7.83;;;6.50;99.90;;;;;;5120930;28;20165;-80
2024/01/31 08:14:42;;;;;;;16.43;7.57;;;6.60;99.90;;;;;;5120736;28;20545;-80
2024/01/31 08:17:08;;;;;;;14.00;7.87;;;6.50;99.90;;;;;;5120568;28;20268;-80
2024/01/31 08:19:37;;;;;;;12.33;6.97;;;6.50;99.90;;;;;;5121452;28;20218;-80
2024/01/31 08:22:03;;;;;;;13.37;6.73;;;6.50;99.90;;;;;;5120568;28;20177;-80
2024/01/31 08:24:29;;;;;;;14.13;7.47;;;6.60;99.90;;;;;;5125102;28;20198;-80
2024/01/31 08:26:54;;;;;;;11.40;6.47;;;6.50;99.90;;;;;;5134750;28;20166;-79
2024/01/31 08:29:20;;;;;;;10.37;6.47;;;6.60;99.90;;;;;;5135094;28;20204;-80
2024/01/31 08:31:46;;;;;;;14.50;6.47;;;6.60;99.90;;;;;;5133921;28;20165;-80
2024/01/31 08:34:11;;;;;;;12.60;6.50;;;6.60;99.90;;;;;;5126979;28;20672;-78
2024/01/31 08:36:37;;;;;;;11.23;6.40;;;6.60;99.90;;;;;;5122248;28;20211;-76
2024/01/31 08:39:03;;;;;;;11.70;6.27;;;6.60;99.90;;;;;;5125170;28;20181;-81
2024/01/31 08:41:28;;;;;;;12.37;6.07;;;6.60;99.90;;;;;;5129835;28;20162;-78
2024/01/31 08:43:54;;;;;;;14.30;5.87;;;6.60;99.90;;;;;;5122490;28;20269;-78
2024/01/31 08:46:19;;;;;;;11.83;6.23;;;6.60;99.90;;;;;;5123726;28;20187;-78
2024/01/31 08:48:46;;;;;;;9.93;5.87;;;6.60;99.90;;;;;;5121533;28;20243;-78
2024/01/31 08:51:14;;;;;;;12.10;5.47;;;6.60;99.90;;;;;;5121429;28;20218;-78
2024/01/31 08:53:39;;;;;;;8.50;5.13;;;6.60;99.90;;;;;;5121491;28;20356;-77
2024/01/31 08:56:05;;;;;;;8.83;5.70;;;6.60;99.90;;;;;;5120182;28;20583;-77
2024/01/31 08:58:31;;;;;;;12.90;5.90;;;6.60;99.90;;;;;;5118293;28;20173;-78
2024/01/31 09:00:59;;;;;;;10.20;5.40;;;6.60;99.90;;;;;;5119487;28;20275;-79
2024/01/31 09:03:25;;;;;;;12.50;6.27;;;6.60;99.90;;;;;;5118922;28;20284;-78
2024/01/31 09:05:51;;;;;;;9.20;5.53;;;6.70;99.90;;;;;;5114990;28;20256;-79
2024/01/31 09:08:16;;;;;;;14.03;6.07;;;6.70;99.90;;;;;;5115760;28;20307;-78
2024/01/31 09:10:42;;;;;;;12.87;6.23;;;6.70;99.90;;;;;;5114799;28;20260;-79
2024/01/31 09:13:07;;;;;;;16.53;6.50;;;6.70;99.90;;;;;;5116623;28;20394;-79
2024/01/31 09:15:33;;;;;;;10.63;5.70;;;6.70;99.90;;;;;;5115842;28;20196;-79
2024/01/31 09:17:58;;;;;;;8.73;5.50;;;6.70;99.90;;;;;;5115806;28;20203;-79
2024/01/31 09:20:24;;;;;;;13.07;5.97;;;6.80;99.90;;;;;;5115925;28;20203;-77
2024/01/31 09:22:49;;;;;;;11.80;6.50;;;6.80;99.90;;;;;;5116492;28;20326;-79
2024/01/31 09:25:15;;;;;;;10.87;5.00;;;6.80;99.90;;;;;;5116696;28;20572;-79
2024/01/31 09:27:41;;;;;;;12.83;6.33;;;6.80;99.90;;;;;;5116489;28;20174;-79
2024/01/31 09:30:07;;;;;;;12.50;6.07;;;6.70;99.90;;;;;;5115969;28;20180;-78
2024/01/31 09:32:33;;;;;;;13.30;6.63;;;6.80;99.90;;;;;;5115900;28;20224;-79
2024/01/31 09:34:58;;;;;;;8.33;5.90;;;6.80;99.90;;;;;;5114285;28;20178;-79
2024/01/31 09:37:24;;;;;;;10.93;6.00;;;6.80;99.90;;;;;;5114638;28;20192;-79
2024/01/31 09:39:54;;;;;;;11.73;5.37;;;6.80;99.90;;;;;;5115818;28;20197;-78
2024/01/31 09:42:19;;;;;;;12.80;6.03;;;6.80;99.90;;;;;;5115745;28;20717;-79
2024/01/31 09:44:45;;;;;;;10.03;5.57;;;6.80;99.90;;;;;;5115971;28;20283;-79
2024/01/31 09:47:12;;;;;;;15.00;6.27;;;6.80;99.90;;;;;;5114482;28;20169;-79
2024/01/31 09:49:38;;;;;;;11.03;5.77;;;6.80;99.90;;;;;;5115824;28;20220;-78
2024/01/31 09:52:04;;;;;;;8.30;5.50;;;6.80;99.90;;;;;;5113533;28;20637;-78
2024/01/31 09:54:30;;;;;;;8.03;5.67;;;6.90;99.90;;;;;;5113551;28;20227;-78
2024/01/31 09:56:57;;;;;;;13.00;6.40;;;6.90;99.90;;;;;;5114227;28;20181;-78
2024/01/31 09:59:24;;;;;;;14.17;5.80;;;6.90;99.90;;;;;;5113901;28;20208;-77
2024/01/31 10:01:52;;;;;;;9.83;6.17;;;6.90;99.90;;;;;;5114262;28;20201;-77
2024/01/31 10:04:18;;;;;;;11.83;6.37;;;6.90;99.90;;;;;;5114243;28;20196;-79
2024/01/31 10:06:44;;;;;;;11.53;6.87;;;6.90;99.90;;;;;;5114325;28;20195;-78
2024/01/31 10:09:10;;;;;;;11.67;6.40;;;6.90;99.90;;;;;;5114399;28;20162;-77
2024/01/31 10:11:36;;;;;;;14.90;5.30;;;6.90;99.90;;;;;;5115192;28;20158;-78
2024/01/31 10:14:01;;;;;;;11.30;6.20;;;7.00;99.90;;;;;;5115180;28;20750;-79
2024/01/31 10:16:27;;;;;;;12.33;6.87;;;7.00;99.90;;;;;;5115127;28;20177;-79
2024/01/31 10:18:52;;;;;;;11.67;6.80;;;7.00;99.90;;;;;;5115400;28;20249;-79
2024/01/31 10:21:19;;;;;;;20.03;8.10;;;7.00;99.90;;;;;;5115134;28;20166;-78
2024/01/31 10:23:56;;;;;;;16.33;7.23;;;7.00;99.90;;;;;;5114843;28;20723;-79
2024/01/31 10:26:22;;;;;;;16.97;7.87;;;7.00;99.90;;;;;;5113741;28;20158;-79
2024/01/31 10:28:48;;;;;;;13.33;8.10;;;7.10;99.90;;;;;;5096766;28;20177;-79
2024/01/31 10:31:14;;;;;;;16.10;8.90;;;7.10;99.90;;;;;;5113871;28;20283;-79
2024/01/31 10:33:40;;;;;;;16.43;8.83;;;7.10;99.90;;;;;;5113395;28;20302;-78
2024/01/31 10:36:07;;;;;;;17.43;9.23;;;7.10;99.90;;;;;;5113612;28;20663;-79
2024/01/31 10:38:33;;;;;;;14.70;9.10;;;7.20;99.90;;;;;;5113502;28;20201;-78
2024/01/31 10:40:59;;;;;;;22.13;9.97;;;7.20;99.90;;;;;;5113309;28;20196;-78
2024/01/31 10:43:27;;;;;;;17.80;9.73;;;7.40;99.90;;;;;;5113755;28;20205;-79
2024/01/31 10:45:52;;;;;;;17.77;10.37;;;7.30;99.90;;;;;;5115120;28;20185;-77
2024/01/31 10:48:18;;;;;;;17.87;10.50;;;7.30;99.90;;;;;;5115343;28;20173;-79
2024/01/31 10:50:43;;;;;;;17.47;10.37;;;7.30;99.90;;;;;;5116116;28;20207;-79
2024/01/31 10:53:10;;;;;;;20.70;11.73;;;7.40;99.90;;;;;;5115603;28;20556;-78
2024/01/31 10:55:37;;;;;;;20.87;12.40;;;7.40;99.90;;;;;;5115210;28;20189;-78
2024/01/31 10:58:04;;;;;;;20.17;11.90;;;7.40;99.90;;;;;;5113697;28;20634;-78
2024/01/31 11:00:30;;;;;;;22.00;12.70;;;7.50;99.90;;;;;;5115197;28;20219;-78
2024/01/31 11:02:57;;;;;;;23.17;12.13;;;7.50;99.90;;;;;;5114800;28;20665;-78
2024/01/31 11:05:24;;;;;;;18.97;12.37;;;7.50;99.90;;;;;;5114734;28;20197;-79
2024/01/31 11:07:50;;;;;;;17.70;11.80;;;7.50;99.90;;;;;;5114873;28;20169;-78
2024/01/31 11:10:25;;;;;;;23.13;12.10;;;7.50;99.90;;;;;;5114897;28;20185;-78
2024/01/31 11:12:59;;;;;;;19.07;12.27;;;7.50;99.90;;;;;;5114780;28;20229;-79
2024/01/31 11:15:33;;;;;;;19.80;12.30;;;7.50;99.90;;;;;;5114667;28;20191;-78
2024/01/31 11:18:09;;;;;;;18.03;11.80;;;7.50;99.90;;;;;;5114601;28;20205;-79
2024/01/31 11:20:40;;;;;;;21.83;12.33;;;7.50;99.90;;;;;;5114543;28;20677;-79
2024/01/31 11:23:06;;;;;;;21.43;12.50;;;7.50;99.90;;;;;;5115390;28;20235;-79
2024/01/31 11:25:34;;;;;;;19.17;12.83;;;7.60;99.90;;;;;;5116171;28;20197;-79
2024/01/31 11:28:00;;;;;;;20.80;12.20;;;7.60;99.90;;;;;;5115950;28;20254;-79
2024/01/31 11:30:26;;;;;;;19.87;12.20;;;7.60;99.90;;;;;;5115233;28;20166;-78
2024/01/31 11:32:51;;;;;;;20.80;12.07;;;7.60;99.90;;;;;;5112820;28;20193;-79
2024/01/31 11:35:17;;;;;;;26.27;12.17;;;7.70;99.90;;;;;;5097270;28;20272;-80
2024/01/31 11:37:43;;;;;;;20.57;12.17;;;7.70;99.90;;;;;;5115715;28;20229;-79
2024/01/31 11:40:09;;;;;;;19.13;12.77;;;7.70;99.90;;;;;;5115054;28;20314;-78
2024/01/31 11:42:35;;;;;;;22.20;12.53;;;7.70;99.90;;;;;;5117392;28;20201;-79
2024/01/31 11:45:01;;;;;;;21.67;13.00;;;7.80;99.90;;;;;;5118872;28;20202;-78
2024/01/31 11:47:27;;;;;;;20.10;13.73;;;7.80;99.90;;;;;;5119308;28;20205;-79
2024/01/31 11:50:00;;;;;;;21.17;13.27;;;7.80;99.90;;;;;;5119683;28;20181;-79
2024/01/31 11:52:26;;;;;;;22.53;13.53;;;7.80;99.90;;;;;;5119282;28;20644;-79
2024/01/31 11:54:51;;;;;;;21.43;13.73;;;7.80;99.90;;;;;;5119924;28;20205;-79
2024/01/31 11:57:17;;;;;;;23.77;13.63;;;7.90;99.90;;;;;;5119001;28;20252;-80
2024/01/31 11:59:43;;;;;;;19.63;12.40;;;7.90;99.90;;;;;;5119069;28;20535;-79
2024/01/31 12:02:09;;;;;;;24.00;12.83;;;7.80;99.90;;;;;;5119026;28;20234;-79
2024/01/31 12:04:34;;;;;;;21.67;13.77;;;7.90;99.90;;;;;;5117535;28;20630;-80
2024/01/31 12:07:06;;;;;;;22.00;14.10;;;7.90;99.90;;;;;;5119377;28;20214;-79
2024/01/31 12:09:34;;;;;;;23.70;14.73;;;7.90;99.90;;;;;;5119191;28;20199;-79
2024/01/31 12:12:00;;;;;;;28.37;16.10;;;7.90;99.90;;;;;;5118906;27;20173;-79
2024/01/31 12:14:25;;;;;;;23.03;15.67;;;7.90;99.90;;;;;;5118806;28;20192;-79
2024/01/31 12:16:51;;;;;;;22.70;14.80;;;7.90;99.90;;;;;;5118475;28;20166;-79
2024/01/31 12:19:20;;;;;;;22.50;15.37;;;7.90;99.90;;;;;;5118473;28;20181;-79
2024/01/31 12:21:45;;;;;;;25.47;15.10;;;8.00;99.90;;;;;;5118273;28;20226;-78
2024/01/31 12:24:11;;;;;;;24.60;15.00;;;8.00;99.90;;;;;;5118788;28;20619;-79
2024/01/31 12:26:37;;;;;;;31.20;16.67;;;8.00;99.90;;;;;;5128214;28;20166;-78
2024/01/31 12:29:03;;;;;;;20.50;13.93;;;8.00;99.90;;;;;;5135124;28;20278;-79
2024/01/31 12:31:29;;;;;;;23.00;14.97;;;8.00;99.90;;;;;;5136129;28;20233;-79
2024/01/31 12:33:54;;;;;;;24.70;16.43;;;8.00;99.90;;;;;;5128421;28;20194;-80
2024/01/31 12:36:20;;;;;;;22.13;14.67;;;8.00;99.90;;;;;;5121623;28;20197;-80
2024/01/31 12:38:46;;;;;;;22.87;15.00;;;8.00;99.90;;;;;;5120739;27;20162;-80
2024/01/31 12:41:12;;;;;;;22.00;14.67;;;8.00;99.90;;;;;;5119525;28;20272;-79